createdAt,value
2019-05-18T00:01:02.028Z,10.30
2019-05-18T00:05:57.599Z,10.00
2019-05-18T00:10:53.085Z,11.97
2019-05-18T00:15:48.554Z,8.60
2019-05-18T00:20:44.043Z,7.87
2019-05-18T00:25:39.531Z,10.43
2019-05-18T00:30:36.652Z,8.63
2019-05-18T00:35:32.270Z,7.90
2019-05-18T00:40:27.817Z,8.10
2019-05-18T00:45:23.321Z,9.27
2019-05-18T00:50:19.003Z,10.37
2019-05-18T00:55:14.471Z,10.40
2019-05-18T01:00:12.248Z,10.07
2019-05-18T01:05:08.355Z,10.03
2019-05-18T01:10:04.038Z,9.10
2019-05-18T01:14:59.571Z,7.50
2019-05-18T01:19:55.071Z,7.67
2019-05-18T01:24:50.538Z,9.17
2019-05-18T01:29:46.047Z,8.03
2019-05-18T01:34:41.621Z,8.67
2019-05-18T01:39:40.923Z,7.93
2019-05-18T01:44:36.493Z,8.17
2019-05-18T01:49:32.310Z,8.67
2019-05-18T01:54:27.823Z,8.90
2019-05-18T02:14:03.450Z,8.00
2019-05-18T02:18:58.910Z,8.00
2019-05-18T02:23:54.383Z,8.03
2019-05-18T02:28:49.862Z,8.03
2019-05-18T02:33:45.366Z,7.87
2019-05-18T02:38:40.926Z,8.37
2019-05-18T02:43:36.369Z,8.30
2019-05-18T02:48:47.745Z,7.07
2019-05-18T02:53:28.923Z,8.23
2019-05-18T02:58:24.404Z,8.27
2019-05-18T03:03:19.907Z,8.00
2019-05-18T03:08:15.593Z,7.67
2019-05-18T03:13:11.162Z,8.30
2019-05-18T03:18:08.372Z,8.53
2019-05-18T03:23:07.493Z,7.40
2019-05-18T03:28:02.962Z,8.37
2019-05-18T03:32:58.466Z,8.80
2019-05-18T03:37:53.929Z,8.03
2019-05-18T03:42:49.503Z,7.90
2019-05-18T03:47:45.033Z,8.23
2019-05-18T03:52:40.530Z,8.70
2019-05-18T03:57:35.978Z,8.63
2019-05-18T04:02:31.487Z,8.70
2019-05-18T04:07:26.972Z,8.57
2019-05-18T04:12:22.420Z,10.07
2019-05-18T04:17:18.071Z,9.40
2019-05-18T04:22:13.545Z,8.67
2019-05-18T04:27:09.025Z,9.30
2019-05-18T04:32:04.638Z,9.23
2019-05-18T04:37:00.101Z,9.30
2019-05-18T04:41:55.557Z,8.50
2019-05-18T04:46:51.091Z,9.17
2019-05-18T04:51:46.823Z,9.03
2019-05-18T04:56:43.144Z,9.87
2019-05-18T05:01:39.008Z,9.40
2019-05-18T05:06:34.604Z,10.57
2019-05-18T05:11:30.141Z,9.23
2019-05-18T05:16:25.806Z,9.60
2019-05-18T05:21:21.314Z,10.07
2019-05-18T05:26:16.914Z,10.37
2019-05-18T05:31:12.437Z,9.90
2019-05-18T05:36:07.976Z,9.83
2019-05-18T05:41:03.506Z,10.33
2019-05-18T05:45:58.969Z,10.63
2019-05-18T05:50:54.509Z,10.07
2019-05-18T05:55:49.996Z,10.13
2019-05-18T06:00:45.491Z,9.63
2019-05-18T06:05:43.262Z,10.03
2019-05-18T06:10:38.839Z,10.67
2019-05-18T06:15:34.413Z,10.40
2019-05-18T06:20:31.485Z,10.57
2019-05-18T06:25:27.015Z,10.87
2019-05-18T06:30:23.235Z,11.30
2019-05-18T06:35:19.053Z,12.17
2019-05-18T06:40:14.863Z,11.90
2019-05-18T06:45:10.774Z,11.30
2019-05-18T06:50:11.380Z,11.33
2019-05-18T06:55:05.737Z,11.43
2019-05-18T07:00:02.009Z,11.00
2019-05-18T07:04:59.434Z,11.13
2019-05-18T07:09:55.034Z,11.60
2019-05-18T07:14:50.671Z,10.50
2019-05-18T07:19:46.183Z,10.97
2019-05-18T07:24:41.762Z,11.47
2019-05-18T07:29:37.283Z,11.10
2019-05-18T07:34:32.888Z,11.17
2019-05-18T07:39:28.569Z,11.40
2019-05-18T07:44:24.163Z,10.70
2019-05-18T07:49:19.844Z,9.20
2019-05-18T07:54:15.522Z,10.67
2019-05-18T07:59:11.298Z,10.23
2019-05-18T08:04:07.924Z,10.10
2019-05-18T08:09:04.810Z,8.97
2019-05-18T08:14:00.478Z,9.40
2019-05-18T08:18:58.115Z,9.77
2019-05-18T08:23:53.279Z,8.93
2019-05-18T08:28:48.849Z,8.13
2019-05-18T08:33:44.410Z,8.17
2019-05-18T08:38:40.054Z,8.07
2019-05-18T08:43:35.752Z,8.83
2019-05-18T08:48:31.337Z,9.03
2019-05-18T08:53:27.054Z,8.63
2019-05-18T08:58:22.716Z,9.00
2019-05-18T09:03:18.275Z,8.30
2019-05-18T09:08:15.033Z,9.30
2019-05-18T09:13:08.947Z,8.93
2019-05-18T09:18:05.090Z,8.87
2019-05-18T09:23:00.817Z,9.10
2019-05-18T09:27:56.518Z,8.80
2019-05-18T09:32:52.225Z,9.00
2019-05-18T09:37:47.831Z,9.27
2019-05-18T09:42:43.613Z,9.47
2019-05-18T09:47:40.092Z,9.50
2019-05-18T09:52:44.835Z,10.37
2019-05-18T09:57:33.007Z,10.40
2019-05-18T10:02:28.657Z,10.17
2019-05-18T10:07:24.342Z,10.67
2019-05-18T10:12:19.974Z,11.63
2019-05-18T10:17:15.656Z,13.40
2019-05-18T10:22:11.306Z,14.23
2019-05-18T10:27:06.911Z,14.33
2019-05-18T10:32:02.574Z,13.13
2019-05-18T10:36:58.234Z,13.43
2019-05-18T10:41:53.840Z,12.20
2019-05-18T10:46:49.508Z,12.87
2019-05-18T10:51:45.143Z,12.50
2019-05-18T10:56:40.787Z,12.33
2019-05-18T11:01:36.571Z,12.17
2019-05-18T11:06:32.245Z,11.83
2019-05-18T11:11:27.919Z,11.10
2019-05-18T11:16:24.059Z,11.63
2019-05-18T11:21:19.757Z,11.47
2019-05-18T11:26:15.358Z,10.07
2019-05-18T11:31:11.027Z,10.77
2019-05-18T11:36:08.298Z,10.40
2019-05-18T11:41:03.932Z,10.50
2019-05-18T11:45:59.559Z,12.33
2019-05-18T11:50:55.178Z,10.93
2019-05-18T11:55:50.881Z,10.43
2019-05-18T12:00:46.479Z,11.97
2019-05-18T12:05:42.176Z,12.13
2019-05-18T12:10:37.828Z,12.97
2019-05-18T12:15:33.555Z,12.33
2019-05-18T12:20:29.136Z,12.33
2019-05-18T12:25:24.845Z,12.57
2019-05-18T12:30:21.343Z,12.40
2019-05-18T12:35:18.000Z,13.50
2019-05-18T12:40:17.994Z,13.00
2019-05-18T12:45:14.159Z,12.27
2019-05-18T12:50:10.567Z,12.23
2019-05-18T12:55:06.587Z,12.83
2019-05-18T13:00:02.314Z,13.73
2019-05-18T13:04:58.003Z,14.07
2019-05-18T13:09:53.651Z,14.40
2019-05-18T13:14:49.470Z,14.70
2019-05-18T13:19:45.155Z,13.87
2019-05-18T13:24:45.317Z,14.00
2019-05-18T13:29:38.491Z,14.13
2019-05-18T13:34:34.756Z,15.87
2019-05-18T13:39:30.557Z,15.77
2019-05-18T13:44:26.130Z,17.47
2019-05-18T13:49:21.779Z,14.63
2019-05-18T13:54:17.355Z,14.60
2019-05-18T13:59:13.003Z,15.67
2019-05-18T14:04:08.640Z,14.87
2019-05-18T14:09:05.777Z,14.10
2019-05-18T14:14:01.311Z,16.77
2019-05-18T14:18:56.965Z,16.00
2019-05-18T14:23:52.583Z,15.83
2019-05-18T14:28:48.153Z,15.37
2019-05-18T14:33:43.879Z,16.80
2019-05-18T14:38:39.390Z,17.53
2019-05-18T14:43:35.075Z,17.43
2019-05-18T14:48:30.799Z,16.40
2019-05-18T14:53:26.431Z,17.47
2019-05-18T14:58:22.089Z,17.37
2019-05-18T15:03:17.610Z,16.87
2019-05-18T15:08:13.235Z,16.07
2019-05-18T15:13:08.852Z,17.07
2019-05-18T15:18:04.539Z,16.33
2019-05-18T15:23:00.082Z,16.90
2019-05-18T15:27:55.709Z,17.47
2019-05-18T15:32:52.411Z,18.50
2019-05-18T15:37:48.045Z,19.07
2019-05-18T15:42:43.602Z,17.77
2019-05-18T15:47:39.150Z,18.50
2019-05-18T15:52:34.734Z,19.33
2019-05-18T15:57:30.408Z,19.63
2019-05-18T16:02:26.106Z,18.47
2019-05-18T16:07:21.764Z,21.10
2019-05-18T16:12:17.363Z,20.07
2019-05-18T16:17:12.944Z,19.97
2019-05-18T16:22:08.599Z,18.90
2019-05-18T16:27:04.239Z,19.60
2019-05-18T16:31:59.874Z,18.97
2019-05-18T16:36:55.481Z,19.37
2019-05-18T16:41:51.071Z,18.93
2019-05-18T16:46:46.819Z,19.83
2019-05-18T16:51:42.323Z,19.70
2019-05-18T16:56:37.855Z,20.00
2019-05-18T17:01:33.438Z,20.40
2019-05-18T17:06:29.007Z,20.67
2019-05-18T17:11:24.811Z,20.57
2019-05-18T17:16:20.441Z,21.17
2019-05-18T17:21:16.072Z,20.47
2019-05-18T17:26:11.657Z,21.00
2019-05-18T17:31:07.291Z,19.17
2019-05-18T17:36:02.886Z,20.30
2019-05-18T17:41:19.986Z,21.40
2019-05-18T17:46:17.091Z,22.63
2019-05-18T17:51:12.690Z,23.63
2019-05-18T17:56:08.310Z,23.50
2019-05-18T18:01:05.163Z,23.83
2019-05-18T18:06:00.771Z,22.70
2019-05-18T18:10:56.381Z,24.83
2019-05-18T18:15:51.909Z,27.97
2019-05-18T18:20:47.418Z,31.37
2019-05-18T18:25:43.060Z,26.50
2019-05-18T18:30:38.691Z,25.80
2019-05-18T18:35:35.275Z,26.13
2019-05-18T18:40:30.754Z,25.93
2019-05-18T18:45:26.383Z,26.57
2019-05-18T18:50:22.115Z,28.10
2019-05-18T18:55:18.024Z,26.77
2019-05-18T19:00:14.673Z,27.30
2019-05-18T19:05:10.802Z,26.17
2019-05-18T19:10:08.226Z,26.83
2019-05-18T19:15:04.023Z,28.17
2019-05-18T19:20:02.069Z,26.10
2019-05-18T19:24:57.747Z,27.83
2019-05-18T19:29:53.996Z,27.63
2019-05-18T19:34:49.653Z,27.93
2019-05-18T19:39:46.030Z,29.13
2019-05-18T19:44:42.618Z,28.00
2019-05-18T19:49:39.207Z,27.97
2019-05-18T19:54:34.798Z,27.37
2019-05-18T19:59:30.387Z,27.97
2019-05-18T20:04:27.919Z,28.20
2019-05-18T20:09:23.891Z,28.07
2019-05-18T20:14:19.519Z,28.10
2019-05-18T20:19:15.058Z,28.47
2019-05-18T20:24:10.521Z,29.03
2019-05-18T20:29:06.989Z,28.63
2019-05-18T20:34:02.648Z,27.37
2019-05-18T20:38:58.298Z,28.80
2019-05-18T20:43:53.845Z,28.03
2019-05-18T20:48:49.423Z,27.73
2019-05-18T20:53:45.014Z,29.43
2019-05-18T20:58:42.166Z,27.30
2019-05-18T21:03:37.698Z,27.07
2019-05-18T21:08:33.286Z,28.67
2019-05-18T21:13:28.787Z,28.17
2019-05-18T21:18:24.681Z,29.17
2019-05-18T21:23:20.179Z,31.50
2019-05-18T21:28:15.690Z,30.40
2019-05-18T21:33:12.315Z,42.37
2019-05-18T21:38:07.782Z,29.97
2019-05-18T21:43:03.288Z,28.63
2019-05-18T21:47:58.856Z,29.10
2019-05-18T21:52:54.394Z,31.53
2019-05-18T21:57:50.269Z,31.80
2019-05-18T22:02:45.782Z,32.47
2019-05-18T22:07:41.273Z,28.53
2019-05-18T22:12:38.269Z,29.77
2019-05-18T22:17:36.403Z,31.53
2019-05-18T22:22:32.007Z,30.37
2019-05-18T22:27:27.618Z,30.63
2019-05-18T22:32:23.153Z,28.70
2019-05-18T22:37:19.743Z,29.53
2019-05-18T22:42:15.238Z,28.80
2019-05-18T22:47:10.761Z,27.23
2019-05-18T22:52:06.271Z,27.80
2019-05-18T22:57:01.767Z,27.90
2019-05-18T23:01:57.273Z,27.50
2019-05-18T23:06:52.818Z,27.93
2019-05-18T23:11:48.402Z,27.90
2019-05-18T23:16:43.910Z,26.43
2019-05-18T23:21:39.415Z,26.47
2019-05-18T23:26:34.967Z,26.43
2019-05-18T23:31:30.563Z,26.90
2019-05-18T23:36:26.130Z,26.10
2019-05-18T23:41:21.626Z,27.00
2019-05-18T23:46:17.245Z,25.97
2019-05-18T23:51:12.851Z,26.63
2019-05-18T23:56:08.405Z,26.10
